sensor_id;sensor_type;location;lat;lon;timestamp;pressure;altitude;pressure_sealevel;temperature;humidity
7754;BME280;3921;42.266;23.122;2023-05-01T00:02:13;95224.03;;;11.27;63.57
7754;BME280;3921;42.266;23.122;2023-05-01T00:04:40;95485.28;;;12.98;63.36
7754;BME280;3921;42.266;23.122;2023-05-01T00:07:08;95209.94;;;11.15;63.12
7754;BME280;3921;42.266;23.122;2023-05-01T00:09:35;95518.59;;;13.20;63.58
7754;BME280;3921;42.266;23.122;2023-05-01T00:12:02;95249.81;;;11.44;63.34
7754;BME280;3921;42.266;23.122;2023-05-01T00:14:32;95554.56;;;13.34;63.52
7754;BME280;3921;42.266;23.122;2023-05-01T00:17:00;95486.38;;;12.82;63.46
7754;BME280;3921;42.266;23.122;2023-05-01T00:19:29;95473.72;;;12.86;63.04
7754;BME280;3921;42.266;23.122;2023-05-01T00:21:57;95522.97;;;13.09;63.08
7754;BME280;3921;42.266;23.122;2023-05-01T00:24:24;95313.91;;;11.84;63.02
7754;BME280;3921;42.266;23.122;2023-05-01T00:26:51;95263.19;;;11.48;63.02
7754;BME280;3921;42.266;23.122;2023-05-01T00:29:19;95380.72;;;12.08;63.52
7754;BME280;3921;42.266;23.122;2023-05-01T00:31:46;95443.22;;;12.43;63.44
7754;BME280;3921;42.266;23.122;2023-05-01T00:34:13;95539.19;;;12.92;63.68
7754;BME280;3921;42.266;23.122;2023-05-01T00:36:43;95622.41;;;13.52;63.87
7754;BME280;3921;42.266;23.122;2023-05-01T00:39:12;95126.19;;;10.44;63.96
7754;BME280;3921;42.266;23.122;2023-05-01T00:41:39;95335.13;;;11.64;63.99
7754;BME280;3921;42.266;23.122;2023-05-01T00:44:06;95356.97;;;11.61;64.07
7754;BME280;3921;42.266;23.122;2023-05-01T00:46:34;95428.56;;;12.09;64.40
7754;BME280;3921;42.266;23.122;2023-05-01T00:49:01;95534.41;;;12.71;64.10
7754;BME280;3921;42.266;23.122;2023-05-01T00:51:30;95401.19;;;11.83;64.24
7754;BME280;3921;42.266;23.122;2023-05-01T00:54:02;95487.91;;;12.30;64.26
7754;BME280;3921;42.266;23.122;2023-05-01T00:56:32;95318.84;;;11.21;64.30
7754;BME280;3921;42.266;23.122;2023-05-01T00:58:59;95478.81;;;12.21;64.45
7754;BME280;3921;42.266;23.122;2023-05-01T01:01:30;95418.00;;;11.78;64.84
7754;BME280;3921;42.266;23.122;2023-05-01T01:03:57;95366.31;;;11.50;64.18
7754;BME280;3921;42.266;23.122;2023-05-01T01:06:32;95323.22;;;11.03;65.04
7754;BME280;3921;42.266;23.122;2023-05-01T01:09:09;95498.94;;;12.20;64.69
7754;BME280;3921;42.266;23.122;2023-05-01T01:11:50;95580.03;;;12.53;64.73
7754;BME280;3921;42.266;23.122;2023-05-01T01:14:23;95304.00;;;10.98;64.92
7754;BME280;3921;42.266;23.122;2023-05-01T01:16:56;95536.47;;;12.43;65.01
7754;BME280;3921;42.266;23.122;2023-05-01T01:19:56;95654.94;;;13.11;65.13
7754;BME280;3921;42.266;23.122;2023-05-01T01:22:34;95548.41;;;12.26;65.07
7754;BME280;3921;42.266;23.122;2023-05-01T01:25:36;95560.78;;;12.44;65.20
7754;BME280;3921;42.266;23.122;2023-05-01T01:28:20;95652.06;;;12.73;65.56
7754;BME280;3921;42.266;23.122;2023-05-01T01:31:12;95639.44;;;12.75;65.18
7754;BME280;3921;42.266;23.122;2023-05-01T01:34:02;95561.00;;;12.27;65.58
7754;BME280;3921;42.266;23.122;2023-05-01T01:36:38;95549.28;;;12.25;64.86
7754;BME280;3921;42.266;23.122;2023-05-01T01:39:12;95506.91;;;11.83;64.69
7754;BME280;3921;42.266;23.122;2023-05-01T01:41:42;95589.38;;;12.44;65.51
7754;BME280;3921;42.266;23.122;2023-05-01T01:44:15;95561.84;;;12.29;64.95
7754;BME280;3921;42.266;23.122;2023-05-01T01:46:47;95402.63;;;11.26;64.64
7754;BME280;3921;42.266;23.122;2023-05-01T01:49:19;95670.41;;;12.86;65.16
7754;BME280;3921;42.266;23.122;2023-05-01T01:51:51;95446.84;;;11.48;64.72
7754;BME280;3921;42.266;23.122;2023-05-01T01:54:22;95460.94;;;11.64;64.57
7754;BME280;3921;42.266;23.122;2023-05-01T01:56:53;95496.00;;;11.80;64.26
7754;BME280;3921;42.266;23.122;2023-05-01T01:59:24;95657.84;;;12.82;64.45
7754;BME280;3921;42.266;23.122;2023-05-01T02:01:53;95675.53;;;12.77;65.07
7754;BME280;3921;42.266;23.122;2023-05-01T02:04:24;95515.34;;;11.75;64.26
7754;BME280;3921;42.266;23.122;2023-05-01T02:06:54;95464.56;;;11.34;64.50
7754;BME280;3921;42.266;23.122;2023-05-01T02:09:23;95629.75;;;12.40;64.55
7754;BME280;3921;42.266;23.122;2023-05-01T02:11:53;95484.66;;;11.40;64.25
7754;BME280;3921;42.266;23.122;2023-05-01T02:14:24;95672.28;;;12.66;64.14
7754;BME280;3921;42.266;23.122;2023-05-01T02:16:54;95403.75;;;10.97;64.27
7754;BME280;3921;42.266;23.122;2023-05-01T02:19:25;95344.63;;;10.52;64.43
7754;BME280;3921;42.266;23.122;2023-05-01T02:22:04;95610.13;;;11.83;64.87
7754;BME280;3921;42.266;23.122;2023-05-01T02:24:32;95379.78;;;10.53;65.02
7754;BME280;3921;42.266;23.122;2023-05-01T02:27:11;95648.56;;;12.05;65.15
7754;BME280;3921;42.266;23.122;2023-05-01T02:29:41;95340.66;;;10.19;66.05
7754;BME280;3921;42.266;23.122;2023-05-01T02:32:08;95549.19;;;11.48;66.87
7754;BME280;3921;42.266;23.122;2023-05-01T02:34:38;95585.19;;;11.51;66.61
7754;BME280;3921;42.266;23.122;2023-05-01T02:37:09;95478.28;;;11.01;66.99
7754;BME280;3921;42.266;23.122;2023-05-01T02:39:38;95359.00;;;10.34;66.56
7754;BME280;3921;42.266;23.122;2023-05-01T02:42:07;95341.47;;;10.28;66.63
7754;BME280;3921;42.266;23.122;2023-05-01T02:44:39;95346.50;;;10.19;66.69
7754;BME280;3921;42.266;23.122;2023-05-01T02:47:19;95539.25;;;11.31;66.51
7754;BME280;3921;42.266;23.122;2023-05-01T02:49:48;95646.78;;;12.15;66.52
7754;BME280;3921;42.266;23.122;2023-05-01T02:52:18;95684.34;;;12.38;66.45
7754;BME280;3921;42.266;23.122;2023-05-01T02:54:46;95569.97;;;11.68;66.13
7754;BME280;3921;42.266;23.122;2023-05-01T02:57:15;95588.44;;;11.67;66.11
7754;BME280;3921;42.266;23.122;2023-05-01T02:59:45;95208.19;;;9.35;66.15
7754;BME280;3921;42.266;23.122;2023-05-01T03:02:12;95440.81;;;10.69;66.04
7754;BME280;3921;42.266;23.122;2023-05-01T03:04:40;95680.34;;;12.18;65.69
7754;BME280;3921;42.266;23.122;2023-05-01T03:07:12;95266.53;;;9.63;65.48
7754;BME280;3921;42.266;23.122;2023-05-01T03:09:39;95426.75;;;10.42;65.73
7754;BME280;3921;42.266;23.122;2023-05-01T03:12:06;95391.75;;;10.11;66.22
7754;BME280;3921;42.266;23.122;2023-05-01T03:14:33;95385.88;;;10.17;65.45
7754;BME280;3921;42.266;23.122;2023-05-01T03:17:00;95616.97;;;11.66;65.38
7754;BME280;3921;42.266;23.122;2023-05-01T03:19:27;95573.59;;;11.36;65.12
7754;BME280;3921;42.266;23.122;2023-05-01T03:21:55;95528.53;;;11.07;65.10
7754;BME280;3921;42.266;23.122;2023-05-01T03:24:24;95383.38;;;10.13;65.10
7754;BME280;3921;42.266;23.122;2023-05-01T03:26:51;95203.38;;;8.96;64.82
7754;BME280;3921;42.266;23.122;2023-05-01T03:29:18;95168.38;;;8.76;65.08
7754;BME280;3921;42.266;23.122;2023-05-01T03:31:45;95479.44;;;10.56;65.39
7754;BME280;3921;42.266;23.122;2023-05-01T03:34:12;95332.50;;;9.80;65.13
7754;BME280;3921;42.266;23.122;2023-05-01T03:36:40;95707.28;;;12.09;65.29
7754;BME280;3921;42.266;23.122;2023-05-01T03:39:07;95708.13;;;12.08;64.99
7754;BME280;3921;42.266;23.122;2023-05-01T03:41:35;95592.09;;;11.23;64.84
7754;BME280;3921;42.266;23.122;2023-05-01T03:44:03;95414.31;;;10.18;64.94
7754;BME280;3921;42.266;23.122;2023-05-01T03:46:30;95283.47;;;9.21;64.90
7754;BME280;3921;42.266;23.122;2023-05-01T03:48:57;95446.97;;;10.13;65.62
7754;BME280;3921;42.266;23.122;2023-05-01T03:51:24;95500.38;;;10.49;65.57
7754;BME280;3921;42.266;23.122;2023-05-01T03:53:51;95699.97;;;11.69;66.02
7754;BME280;3921;42.266;23.122;2023-05-01T03:56:21;95381.06;;;9.77;65.99
7754;BME280;3921;42.266;23.122;2023-05-01T03:58:51;95471.28;;;10.09;65.83
7754;BME280;3921;42.266;23.122;2023-05-01T04:01:18;95507.06;;;10.53;65.47
7754;BME280;3921;42.266;23.122;2023-05-01T04:03:46;95538.00;;;10.64;65.86
7754;BME280;3921;42.266;23.122;2023-05-01T04:06:13;95535.50;;;10.64;65.44
7754;BME280;3921;42.266;23.122;2023-05-01T04:08:41;95491.28;;;10.31;65.46
7754;BME280;3921;42.266;23.122;2023-05-01T04:11:09;95239.38;;;8.69;65.17
7754;BME280;3921;42.266;23.122;2023-05-01T04:13:36;95432.03;;;9.84;65.12
7754;BME280;3921;42.266;23.122;2023-05-01T04:16:05;95484.59;;;10.22;65.65
7754;BME280;3921;42.266;23.122;2023-05-01T04:18:33;95522.22;;;10.41;65.13
7754;BME280;3921;42.266;23.122;2023-05-01T04:21:00;95613.31;;;10.76;65.68
7754;BME280;3921;42.266;23.122;2023-05-01T04:23:29;95736.97;;;11.61;65.79
7754;BME280;3921;42.266;23.122;2023-05-01T04:25:56;95621.66;;;10.86;65.95
7754;BME280;3921;42.266;23.122;2023-05-01T04:28:34;95648.41;;;11.02;65.69
7754;BME280;3921;42.266;23.122;2023-05-01T04:31:02;95231.06;;;8.61;65.29
7754;BME280;3921;42.266;23.122;2023-05-01T04:34:05;95404.56;;;9.50;65.08
7754;BME280;3921;42.266;23.122;2023-05-01T04:36:46;95259.38;;;8.77;65.42
7754;BME280;3921;42.266;23.122;2023-05-01T04:39:13;95186.84;;;8.34;65.04
7754;BME280;3921;42.266;23.122;2023-05-01T04:41:46;95445.38;;;9.98;65.04
7754;BME280;3921;42.266;23.122;2023-05-01T04:44:14;95411.22;;;9.65;64.87
7754;BME280;3921;42.266;23.122;2023-05-01T04:46:42;95511.41;;;10.23;65.14
7754;BME280;3921;42.266;23.122;2023-05-01T04:49:12;95713.34;;;11.79;64.90
7754;BME280;3921;42.266;23.122;2023-05-01T04:51:42;95257.69;;;8.91;65.12
7754;BME280;3921;42.266;23.122;2023-05-01T04:54:10;95502.88;;;10.58;65.26
7754;BME280;3921;42.266;23.122;2023-05-01T04:56:37;95196.81;;;8.54;65.09
7754;BME280;3921;42.266;23.122;2023-05-01T04:59:07;95196.84;;;8.57;64.92
7754;BME280;3921;42.266;23.122;2023-05-01T05:01:37;95594.75;;;11.08;66.13
7754;BME280;3921;42.266;23.122;2023-05-01T05:04:05;95523.00;;;10.47;65.80
7754;BME280;3921;42.266;23.122;2023-05-01T05:06:34;95649.00;;;11.47;66.63
7754;BME280;3921;42.266;23.122;2023-05-01T05:09:01;95262.59;;;9.11;66.52
7754;BME280;3921;42.266;23.122;2023-05-01T05:11:31;95589.69;;;11.09;66.37
7754;BME280;3921;42.266;23.122;2023-05-01T05:14:01;95512.91;;;10.58;66.75
7754;BME280;3921;42.266;23.122;2023-05-01T05:16:29;95281.78;;;9.30;67.29
7754;BME280;3921;42.266;23.122;2023-05-01T05:19:01;95186.81;;;8.62;67.01
7754;BME280;3921;42.266;23.122;2023-05-01T05:21:30;95570.38;;;11.14;67.16
7754;BME280;3921;42.266;23.122;2023-05-01T05:24:02;95256.69;;;9.27;67.08
7754;BME280;3921;42.266;23.122;2023-05-01T05:26:30;95497.81;;;10.67;67.45
7754;BME280;3921;42.266;23.122;2023-05-01T05:28:58;95202.53;;;8.96;67.27
7754;BME280;3921;42.266;23.122;2023-05-01T05:31:26;95217.53;;;9.05;67.59
7754;BME280;3921;42.266;23.122;2023-05-01T05:33:56;95253.34;;;9.31;68.24
7754;BME280;3921;42.266;23.122;2023-05-01T05:36:33;95229.25;;;9.01;67.96
7754;BME280;3921;42.266;23.122;2023-05-01T05:39:11;95559.47;;;11.12;68.23
7754;BME280;3921;42.266;23.122;2023-05-01T05:41:39;95314.94;;;9.88;68.33
7754;BME280;3921;42.266;23.122;2023-05-01T05:44:06;95262.47;;;9.45;68.44
7754;BME280;3921;42.266;23.122;2023-05-01T05:46:34;95434.22;;;10.53;68.52
7754;BME280;3921;42.266;23.122;2023-05-01T05:49:36;95380.81;;;10.28;68.38
7754;BME280;3921;42.266;23.122;2023-05-01T05:52:08;95510.97;;;11.00;68.11
7754;BME280;3921;42.266;23.122;2023-05-01T05:54:55;95279.78;;;9.86;67.79
7754;BME280;3921;42.266;23.122;2023-05-01T05:57:32;95304.72;;;10.09;67.60
7754;BME280;3921;42.266;23.122;2023-05-01T06:02:37;95730.94;;;12.85;67.56
7754;BME280;3921;42.266;23.122;2023-05-01T06:05:04;95752.66;;;12.96;67.73
7754;BME280;3921;42.266;23.122;2023-05-01T06:07:32;95479.00;;;11.15;67.54
7754;BME280;3921;42.266;23.122;2023-05-01T06:10:00;95481.41;;;11.31;67.48
7754;BME280;3921;42.266;23.122;2023-05-01T06:12:29;95704.34;;;12.53;67.64
7754;BME280;3921;42.266;23.122;2023-05-01T06:15:00;95648.19;;;12.42;66.89
7754;BME280;3921;42.266;23.122;2023-05-01T06:17:28;95808.63;;;13.34;66.94
7754;BME280;3921;42.266;23.122;2023-05-01T06:19:55;95563.13;;;11.84;67.08
7754;BME280;3921;42.266;23.122;2023-05-01T06:22:22;95506.28;;;11.60;67.07
7754;BME280;3921;42.266;23.122;2023-05-01T06:24:49;95498.75;;;11.57;66.86
7754;BME280;3921;42.266;23.122;2023-05-01T06:27:20;95389.56;;;10.88;66.66
7754;BME280;3921;42.266;23.122;2023-05-01T06:29:47;95626.13;;;12.61;66.79
7754;BME280;3921;42.266;23.122;2023-05-01T06:32:14;95309.44;;;10.55;66.41
7754;BME280;3921;42.266;23.122;2023-05-01T06:34:41;95646.19;;;12.71;66.47
7754;BME280;3921;42.266;23.122;2023-05-01T06:37:08;95274.25;;;10.55;66.06
7754;BME280;3921;42.266;23.122;2023-05-01T06:39:35;95497.47;;;12.02;65.88
7754;BME280;3921;42.266;23.122;2023-05-01T06:42:02;95645.97;;;12.88;65.81
7754;BME280;3921;42.266;23.122;2023-05-01T06:44:32;95621.78;;;12.75;65.15
7754;BME280;3921;42.266;23.122;2023-05-01T06:47:00;95523.34;;;12.16;64.98
7754;BME280;3921;42.266;23.122;2023-05-01T06:49:27;95760.19;;;13.72;65.04
7754;BME280;3921;42.266;23.122;2023-05-01T06:51:56;95687.72;;;13.14;64.84
7754;BME280;3921;42.266;23.122;2023-05-01T06:54:23;95459.84;;;11.93;64.64
7754;BME280;3921;42.266;23.122;2023-05-01T06:56:51;95464.00;;;11.94;64.54
7754;BME280;3921;42.266;23.122;2023-05-01T06:59:18;95609.78;;;12.92;64.16
7754;BME280;3921;42.266;23.122;2023-05-01T07:01:46;95639.88;;;13.08;63.95
7754;BME280;3921;42.266;23.122;2023-05-01T07:04:13;95694.06;;;13.44;63.73
7754;BME280;3921;42.266;23.122;2023-05-01T07:06:41;95434.03;;;11.69;63.95
7754;BME280;3921;42.266;23.122;2023-05-01T07:09:08;95416.25;;;11.86;63.78
7754;BME280;3921;42.266;23.122;2023-05-01T07:11:37;95452.91;;;12.10;63.79
7754;BME280;3921;42.266;23.122;2023-05-01T07:14:07;95528.00;;;12.48;64.17
7754;BME280;3921;42.266;23.122;2023-05-01T07:16:34;95652.94;;;13.37;64.64
7754;BME280;3921;42.266;23.122;2023-05-01T07:19:03;95777.22;;;14.15;64.82
7754;BME280;3921;42.266;23.122;2023-05-01T07:21:36;95535.94;;;12.83;64.86
7754;BME280;3921;42.266;23.122;2023-05-01T07:24:04;95377.56;;;11.92;64.91
7754;BME280;3921;42.266;23.122;2023-05-01T07:26:32;95719.41;;;13.96;65.22
7754;BME280;3921;42.266;23.122;2023-05-01T07:29:05;95265.91;;;11.31;65.04
7754;BME280;3921;42.266;23.122;2023-05-01T07:31:33;95757.94;;;14.09;65.52
7754;BME280;3921;42.266;23.122;2023-05-01T07:34:00;95715.81;;;14.09;65.15
7754;BME280;3921;42.266;23.122;2023-05-01T07:36:28;95279.31;;;11.32;64.84
7754;BME280;3921;42.266;23.122;2023-05-01T07:38:55;95601.44;;;13.49;64.81
7754;BME280;3921;42.266;23.122;2023-05-01T07:41:23;95624.69;;;13.69;64.64
7754;BME280;3921;42.266;23.122;2023-05-01T07:43:51;95648.19;;;13.73;64.86
7754;BME280;3921;42.266;23.122;2023-05-01T07:46:21;95374.75;;;12.16;64.78
7754;BME280;3921;42.266;23.122;2023-05-01T07:48:48;95546.47;;;13.11;64.44
7754;BME280;3921;42.266;23.122;2023-05-01T07:51:17;95355.47;;;12.14;64.70
7754;BME280;3921;42.266;23.122;2023-05-01T07:53:49;95233.91;;;11.42;64.20
7754;BME280;3921;42.266;23.122;2023-05-01T07:56:16;95775.63;;;14.65;64.26
7754;BME280;3921;42.266;23.122;2023-05-01T07:58:49;95478.53;;;13.00;64.39
7754;BME280;3921;42.266;23.122;2023-05-01T08:01:21;95265.34;;;11.76;64.15
7754;BME280;3921;42.266;23.122;2023-05-01T08:03:49;95606.81;;;13.83;64.38
7754;BME280;3921;42.266;23.122;2023-05-01T08:06:16;95663.19;;;14.33;63.96
7754;BME280;3921;42.266;23.122;2023-05-01T08:08:45;95656.81;;;14.14;64.01
7754;BME280;3921;42.266;23.122;2023-05-01T08:11:47;95731.38;;;14.87;64.27
7754;BME280;3921;42.266;23.122;2023-05-01T08:14:14;95649.00;;;14.26;64.34
7754;BME280;3921;42.266;23.122;2023-05-01T08:16:52;95589.59;;;14.05;64.71
7754;BME280;3921;42.266;23.122;2023-05-01T08:19:19;95550.31;;;13.89;64.54
7754;BME280;3921;42.266;23.122;2023-05-01T08:21:47;95647.75;;;14.50;64.31
7754;BME280;3921;42.266;23.122;2023-05-01T08:24:14;95558.59;;;13.95;64.08
7754;BME280;3921;42.266;23.122;2023-05-01T08:26:41;95604.94;;;14.41;64.03
7754;BME280;3921;42.266;23.122;2023-05-01T08:29:16;95527.34;;;14.01;63.70
7754;BME280;3921;42.266;23.122;2023-05-01T08:31:46;95389.06;;;13.22;63.52
7754;BME280;3921;42.266;23.122;2023-05-01T08:34:13;95471.47;;;13.71;63.23
7754;BME280;3921;42.266;23.122;2023-05-01T08:36:41;95592.75;;;14.63;62.83
7754;BME280;3921;42.266;23.122;2023-05-01T08:39:14;95537.75;;;14.29;62.83
7754;BME280;3921;42.266;23.122;2023-05-01T08:41:47;95660.81;;;15.15;62.05
7754;BME280;3921;42.266;23.122;2023-05-01T08:44:16;95541.75;;;14.39;61.56
7754;BME280;3921;42.266;23.122;2023-05-01T08:46:46;95637.34;;;15.07;62.07
7754;BME280;3921;42.266;23.122;2023-05-01T08:49:15;95464.31;;;13.93;62.36
7754;BME280;3921;42.266;23.122;2023-05-01T08:51:45;95231.28;;;12.60;61.44
7754;BME280;3921;42.266;23.122;2023-05-01T08:54:13;95672.09;;;15.39;59.77
7754;BME280;3921;42.266;23.122;2023-05-01T08:56:42;95616.97;;;15.14;59.48
7754;BME280;3921;42.266;23.122;2023-05-01T08:59:12;95413.19;;;14.24;59.01
7754;BME280;3921;42.266;23.122;2023-05-01T09:01:45;95603.66;;;15.44;58.44
7754;BME280;3921;42.266;23.122;2023-05-01T09:04:16;95549.38;;;15.18;58.19
7754;BME280;3921;42.266;23.122;2023-05-01T09:06:43;95322.28;;;13.82;57.26
7754;BME280;3921;42.266;23.122;2023-05-01T09:09:10;95464.50;;;14.68;55.81
7754;BME280;3921;42.266;23.122;2023-05-01T09:11:38;95259.09;;;13.45;55.04
7754;BME280;3921;42.266;23.122;2023-05-01T09:14:12;95414.38;;;14.48;53.63
7754;BME280;3921;42.266;23.122;2023-05-01T09:16:43;95330.44;;;13.93;53.09
7754;BME280;3921;42.266;23.122;2023-05-01T09:19:10;95583.06;;;15.57;54.08
7754;BME280;3921;42.266;23.122;2023-05-01T09:21:37;95389.34;;;14.35;54.37
7754;BME280;3921;42.266;23.122;2023-05-01T09:24:06;95534.94;;;15.57;54.22
7754;BME280;3921;42.266;23.122;2023-05-01T09:26:33;95618.28;;;16.04;53.10
7754;BME280;3921;42.266;23.122;2023-05-01T09:29:05;95459.56;;;14.99;52.42
7754;BME280;3921;42.266;23.122;2023-05-01T09:31:32;95214.22;;;13.59;52.25
7754;BME280;3921;42.266;23.122;2023-05-01T09:34:01;95697.44;;;16.80;51.44
7754;BME280;3921;42.266;23.122;2023-05-01T09:36:30;95628.03;;;16.19;52.03
7754;BME280;3921;42.266;23.122;2023-05-01T09:38:59;95222.56;;;14.00;51.70
7754;BME280;3921;42.266;23.122;2023-05-01T09:41:27;95241.06;;;13.99;52.02
7754;BME280;3921;42.266;23.122;2023-05-01T09:43:56;95238.88;;;14.21;52.54
7754;BME280;3921;42.266;23.122;2023-05-01T09:46:24;95452.91;;;15.64;52.91
7754;BME280;3921;42.266;23.122;2023-05-01T09:48:53;95266.00;;;14.51;53.19
7754;BME280;3921;42.266;23.122;2023-05-01T09:51:26;95201.63;;;14.29;52.54
7754;BME280;3921;42.266;23.122;2023-05-01T09:53:54;95270.31;;;14.80;51.08
7754;BME280;3921;42.266;23.122;2023-05-01T09:56:22;95630.44;;;17.17;49.67
7754;BME280;3921;42.266;23.122;2023-05-01T09:58:50;95610.84;;;17.22;49.20
7754;BME280;3921;42.266;23.122;2023-05-01T10:01:18;95458.00;;;16.25;48.80
7754;BME280;3921;42.266;23.122;2023-05-01T10:03:45;95384.81;;;16.14;48.13
7754;BME280;3921;42.266;23.122;2023-05-01T10:06:26;95530.06;;;17.33;47.01
7754;BME280;3921;42.266;23.122;2023-05-01T10:08:54;95252.28;;;15.83;46.63
7754;BME280;3921;42.266;23.122;2023-05-01T10:11:21;95498.38;;;17.45;45.90
7754;BME280;3921;42.266;23.122;2023-05-01T10:14:06;95673.72;;;18.74;45.62
7754;BME280;3921;42.266;23.122;2023-05-01T10:16:34;95591.69;;;18.43;45.61
7754;BME280;3921;42.266;23.122;2023-05-01T10:19:03;95698.81;;;19.10;45.66
7754;BME280;3921;42.266;23.122;2023-05-01T10:21:32;95421.63;;;17.60;45.17
7754;BME280;3921;42.266;23.122;2023-05-01T10:24:00;95674.75;;;19.41;45.55
7754;BME280;3921;42.266;23.122;2023-05-01T10:26:28;95404.03;;;17.81;44.44
7754;BME280;3921;42.266;23.122;2023-05-01T10:28:55;95458.47;;;18.22;45.38
7754;BME280;3921;42.266;23.122;2023-05-01T10:31:24;95528.41;;;18.80;45.61
7754;BME280;3921;42.266;23.122;2023-05-01T10:33:52;95645.72;;;19.67;44.01
7754;BME280;3921;42.266;23.122;2023-05-01T10:36:21;95285.91;;;17.44;42.42
7754;BME280;3921;42.266;23.122;2023-05-01T10:38:52;95252.69;;;17.25;43.10
7754;BME280;3921;42.266;23.122;2023-05-01T10:44:26;95693.06;;;19.96;43.73
7754;BME280;3921;42.266;23.122;2023-05-01T10:46:53;95434.25;;;18.35;44.04
7754;BME280;3921;42.266;23.122;2023-05-01T10:49:21;95638.94;;;19.44;43.71
7754;BME280;3921;42.266;23.122;2023-05-01T10:51:57;95297.59;;;17.71;43.68
7754;BME280;3921;42.266;23.122;2023-05-01T10:54:27;95354.16;;;18.00;44.45
7754;BME280;3921;42.266;23.122;2023-05-01T10:56:55;95690.41;;;20.19;45.10
7754;BME280;3921;42.266;23.122;2023-05-01T10:59:24;95415.81;;;18.28;45.69
7754;BME280;3921;42.266;23.122;2023-05-01T11:01:52;95464.69;;;18.60;46.84
7754;BME280;3921;42.266;23.122;2023-05-01T11:04:49;95687.81;;;19.99;46.58
7754;BME280;3921;42.266;23.122;2023-05-01T11:07:21;95554.38;;;19.12;46.64
7754;BME280;3921;42.266;23.122;2023-05-01T11:09:51;95698.69;;;19.82;46.47
7754;BME280;3921;42.266;23.122;2023-05-01T11:12:47;95688.38;;;19.63;46.89
7754;BME280;3921;42.266;23.122;2023-05-01T11:15:26;95569.94;;;18.82;47.07
7754;BME280;3921;42.266;23.122;2023-05-01T11:17:54;95592.78;;;18.84;47.59
7754;BME280;3921;42.266;23.122;2023-05-01T11:20:46;95687.72;;;19.34;47.42
7754;BME280;3921;42.266;23.122;2023-05-01T11:23:21;95212.44;;;16.41;46.66
7754;BME280;3921;42.266;23.122;2023-05-01T11:26:00;95624.00;;;18.89;46.32
7754;BME280;3921;42.266;23.122;2023-05-01T11:28:29;95512.69;;;18.46;45.38
7754;BME280;3921;42.266;23.122;2023-05-01T11:30:57;95535.94;;;18.83;44.95
7754;BME280;3921;42.266;23.122;2023-05-01T11:33:25;95632.94;;;19.68;44.51
7754;BME280;3921;42.266;23.122;2023-05-01T11:35:58;95643.75;;;19.95;44.38
7754;BME280;3921;42.266;23.122;2023-05-01T11:38:26;95211.63;;;17.61;44.24
7754;BME280;3921;42.266;23.122;2023-05-01T11:40:57;95490.13;;;19.48;44.37
7754;BME280;3921;42.266;23.122;2023-05-01T11:43:25;95377.78;;;18.93;42.76
7754;BME280;3921;42.266;23.122;2023-05-01T11:45:52;95639.00;;;20.69;41.03
7754;BME280;3921;42.266;23.122;2023-05-01T11:48:27;95550.66;;;20.26;41.04
7754;BME280;3921;42.266;23.122;2023-05-01T11:50:54;95232.34;;;18.38;40.80
7754;BME280;3921;42.266;23.122;2023-05-01T11:53:21;95451.28;;;19.83;39.19
7754;BME280;3921;42.266;23.122;2023-05-01T11:55:48;95644.34;;;21.21;39.04
7754;BME280;3921;42.266;23.122;2023-05-01T11:58:18;95316.28;;;19.22;39.35
7754;BME280;3921;42.266;23.122;2023-05-01T12:00:56;95610.88;;;21.08;39.46
7754;BME280;3921;42.266;23.122;2023-05-01T12:03:25;95550.41;;;20.90;38.99
7754;BME280;3921;42.266;23.122;2023-05-01T12:05:52;95231.50;;;19.00;37.86
7754;BME280;3921;42.266;23.122;2023-05-01T12:08:22;95320.56;;;19.61;37.59
7754;BME280;3921;42.266;23.122;2023-05-01T12:10:52;95209.06;;;19.08;36.49
7754;BME280;3921;42.266;23.122;2023-05-01T12:13:22;95170.94;;;18.88;36.60
7754;BME280;3921;42.266;23.122;2023-05-01T12:15:51;95524.50;;;21.16;36.48
7754;BME280;3921;42.266;23.122;2023-05-01T12:18:21;95668.06;;;21.98;36.40
7754;BME280;3921;42.266;23.122;2023-05-01T12:20:50;95380.38;;;20.29;36.96
7754;BME280;3921;42.266;23.122;2023-05-01T12:23:19;95236.50;;;19.41;36.56
7754;BME280;3921;42.266;23.122;2023-05-01T12:25:56;95218.44;;;19.26;36.91
7754;BME280;3921;42.266;23.122;2023-05-01T12:28:24;95230.69;;;19.37;37.17
7754;BME280;3921;42.266;23.122;2023-05-01T12:30:52;95332.22;;;20.04;37.31
7754;BME280;3921;42.266;23.122;2023-05-01T12:33:23;95546.50;;;21.38;37.34
7754;BME280;3921;42.266;23.122;2023-05-01T12:35:51;95430.47;;;20.69;37.57
7754;BME280;3921;42.266;23.122;2023-05-01T12:38:19;95214.38;;;19.61;36.64
7754;BME280;3921;42.266;23.122;2023-05-01T12:40:51;95362.19;;;20.56;36.90
7754;BME280;3921;42.266;23.122;2023-05-01T12:43:19;95240.78;;;19.78;36.38
7754;BME280;3921;42.266;23.122;2023-05-01T12:45:52;95512.44;;;21.55;36.83
7754;BME280;3921;42.266;23.122;2023-05-01T12:48:19;95172.72;;;19.42;35.39
7754;BME280;3921;42.266;23.122;2023-05-01T12:50:47;95459.31;;;21.08;35.82
7754;BME280;3921;42.266;23.122;2023-05-01T12:53:19;95602.25;;;21.66;37.58
7754;BME280;3921;42.266;23.122;2023-05-01T12:55:47;95656.47;;;21.91;38.01
7754;BME280;3921;42.266;23.122;2023-05-01T12:58:14;95342.16;;;19.92;36.35
7754;BME280;3921;42.266;23.122;2023-05-01T13:00:43;95370.34;;;20.07;38.22
7754;BME280;3921;42.266;23.122;2023-05-01T13:03:13;95464.81;;;20.43;38.03
7754;BME280;3921;42.266;23.122;2023-05-01T13:05:53;95530.19;;;20.85;37.71
7754;BME280;3921;42.266;23.122;2023-05-01T13:08:28;95437.69;;;20.22;38.15
7754;BME280;3921;42.266;23.122;2023-05-01T13:10:57;95426.75;;;20.20;38.32
7754;BME280;3921;42.266;23.122;2023-05-01T13:13:26;95254.63;;;19.14;38.67
7754;BME280;3921;42.266;23.122;2023-05-01T13:16:02;95668.84;;;21.82;39.04
7754;BME280;3921;42.266;23.122;2023-05-01T13:18:33;95590.09;;;20.97;39.16
7754;BME280;3921;42.266;23.122;2023-05-01T13:21:07;95591.66;;;21.18;39.28
7754;BME280;3921;42.266;23.122;2023-05-01T13:23:36;95393.44;;;20.04;38.89
7754;BME280;3921;42.266;23.122;2023-05-01T13:26:05;95681.09;;;21.75;38.81
7754;BME280;3921;42.266;23.122;2023-05-01T13:28:33;95501.28;;;20.66;38.35
7754;BME280;3921;42.266;23.122;2023-05-01T13:31:09;95572.06;;;21.19;38.34
7754;BME280;3921;42.266;23.122;2023-05-01T13:33:40;95388.75;;;20.14;38.19
7754;BME280;3921;42.266;23.122;2023-05-01T13:36:09;95276.25;;;19.45;37.83